KNPA/NPA METAR and TAF weather

Enter ICAO airport designator
Station Type Date Time Source
KNPA METAR 2021/02/27 09:56 UTC NOAA

KNPA 270956Z AUTO 13004KT 1/2SM FG VV002 19/19 A3008 RMK AO2 SLP186 T01940189 $


Station Type Date Time Source
KNPA Decoded METAR 2021/02/27 09:56 UTC NOAA

Pensacola, Naval Air Station, FL, United States (KNPA) 30-21-22N 087-19-24W 10M
Feb 27, 2021 - 04:56 AM EST / 2021.02.27 0956 UTC
Wind: from the SE (130 degrees) at 5 MPH (4 KT):0
Visibility: 1/2 mile(s):0
Sky conditions: obscured
Weather: fog
Temperature: 66.9 F (19.4 C)
Dew Point: 66.0 F (18.9 C)
Relative Humidity: 96%
Pressure (altimeter): 30.08 in. Hg (1018 hPa)
ob: KNPA 270956Z AUTO 13004KT 1/2SM FG VV002 19/19 A3008 RMK AO2 SLP186 T01940189
cycle: 10

Station Type Date Time Source
KNPA TAF 2021/02/27 02:58 UTC NOAA

TAF COR KNPA 2702/2723 17005KT 9999 SCT025 BKN060 BKN090 QNH3005INS
FM270300 VRB03KT 6000 BR FEW003 SCT025 BKN060 QNH3005INS
TEMPO 2703/2707 1600 BR BKN002
FM270700 VRB03KT 0400 FG VV002 QNH3007INS
FM271400 VRB03KT 1600 BR BKN003 QNH3008INS
FM271600 14008KT 9999 BKN005 BKN025 OVC060 QNH3011INS
FM271800 16011KT 9999 SCT030 BKN060 QNH3003INS LAST NO
AMDS AFT 2623 NEXT 0107 AUTOMATED SENSOR METWATCH 2703 TIL 2715 T17/2711Z T24/2718Z COR 0255 FN20034

Example: see airport list